sensor_id;sensor_type;location;lat;lon;timestamp;P1;durP1;ratioP1;P2;durP2;ratioP2
59273;SDS011;45044;41.572;24.730;2022-08-19T00:01:35;12.18;;;9.63;;
59273;SDS011;45044;41.572;24.730;2022-08-19T00:04:04;13.68;;;10.95;;
59273;SDS011;45044;41.572;24.730;2022-08-19T00:06:33;15.13;;;9.90;;
59273;SDS011;45044;41.572;24.730;2022-08-19T00:09:03;12.05;;;9.73;;
59273;SDS011;45044;41.572;24.730;2022-08-19T00:11:32;11.43;;;9.68;;
59273;SDS011;45044;41.572;24.730;2022-08-19T00:14:00;11.25;;;9.82;;
59273;SDS011;45044;41.572;24.730;2022-08-19T00:16:29;12.30;;;9.90;;
59273;SDS011;45044;41.572;24.730;2022-08-19T00:18:56;13.93;;;9.98;;
59273;SDS011;45044;41.572;24.730;2022-08-19T00:21:23;14.30;;;10.43;;
59273;SDS011;45044;41.572;24.730;2022-08-19T00:23:52;12.93;;;10.13;;
59273;SDS011;45044;41.572;24.730;2022-08-19T00:26:20;12.07;;;10.60;;
59273;SDS011;45044;41.572;24.730;2022-08-19T00:28:46;11.93;;;10.05;;
59273;SDS011;45044;41.572;24.730;2022-08-19T00:31:13;12.98;;;11.18;;
59273;SDS011;45044;41.572;24.730;2022-08-19T00:33:40;12.88;;;9.43;;
59273;SDS011;45044;41.572;24.730;2022-08-19T00:36:07;12.20;;;9.93;;
59273;SDS011;45044;41.572;24.730;2022-08-19T00:38:36;13.77;;;9.25;;
59273;SDS011;45044;41.572;24.730;2022-08-19T00:41:05;12.52;;;9.82;;
59273;SDS011;45044;41.572;24.730;2022-08-19T00:43:32;11.38;;;10.13;;
59273;SDS011;45044;41.572;24.730;2022-08-19T00:45:59;11.40;;;9.48;;
59273;SDS011;45044;41.572;24.730;2022-08-19T00:48:27;13.02;;;10.32;;
59273;SDS011;45044;41.572;24.730;2022-08-19T00:50:54;11.82;;;10.23;;
59273;SDS011;45044;41.572;24.730;2022-08-19T00:53:22;11.90;;;9.90;;
59273;SDS011;45044;41.572;24.730;2022-08-19T00:55:53;12.02;;;9.55;;
59273;SDS011;45044;41.572;24.730;2022-08-19T00:58:24;12.27;;;9.68;;
59273;SDS011;45044;41.572;24.730;2022-08-19T01:00:55;14.13;;;10.60;;
59273;SDS011;45044;41.572;24.730;2022-08-19T01:03:22;11.85;;;9.95;;
59273;SDS011;45044;41.572;24.730;2022-08-19T01:05:51;14.63;;;10.30;;
59273;SDS011;45044;41.572;24.730;2022-08-19T01:08:20;15.05;;;9.93;;
59273;SDS011;45044;41.572;24.730;2022-08-19T01:10:49;13.82;;;10.02;;
59273;SDS011;45044;41.572;24.730;2022-08-19T01:13:19;12.70;;;10.05;;
59273;SDS011;45044;41.572;24.730;2022-08-19T01:15:57;12.57;;;9.80;;
59273;SDS011;45044;41.572;24.730;2022-08-19T01:18:27;13.07;;;10.18;;
59273;SDS011;45044;41.572;24.730;2022-08-19T01:20:58;12.63;;;9.38;;
59273;SDS011;45044;41.572;24.730;2022-08-19T01:23:32;16.30;;;10.80;;
59273;SDS011;45044;41.572;24.730;2022-08-19T01:26:14;13.07;;;10.15;;
59273;SDS011;45044;41.572;24.730;2022-08-19T01:28:44;14.80;;;9.63;;
59273;SDS011;45044;41.572;24.730;2022-08-19T01:31:13;14.68;;;10.10;;
59273;SDS011;45044;41.572;24.730;2022-08-19T01:33:53;14.63;;;10.25;;
59273;SDS011;45044;41.572;24.730;2022-08-19T01:36:22;12.30;;;10.77;;
59273;SDS011;45044;41.572;24.730;2022-08-19T01:38:56;11.85;;;9.50;;
59273;SDS011;45044;41.572;24.730;2022-08-19T01:41:24;12.57;;;10.05;;
59273;SDS011;45044;41.572;24.730;2022-08-19T01:43:51;13.68;;;10.43;;
59273;SDS011;45044;41.572;24.730;2022-08-19T01:46:40;14.82;;;10.38;;
59273;SDS011;45044;41.572;24.730;2022-08-19T01:49:08;13.55;;;9.95;;
59273;SDS011;45044;41.572;24.730;2022-08-19T01:51:36;12.63;;;10.27;;
59273;SDS011;45044;41.572;24.730;2022-08-19T01:54:06;13.02;;;9.52;;
59273;SDS011;45044;41.572;24.730;2022-08-19T01:56:34;12.63;;;10.48;;
59273;SDS011;45044;41.572;24.730;2022-08-19T01:59:02;10.98;;;9.75;;
59273;SDS011;45044;41.572;24.730;2022-08-19T02:01:32;11.38;;;10.15;;
59273;SDS011;45044;41.572;24.730;2022-08-19T02:04:01;13.35;;;10.20;;
59273;SDS011;45044;41.572;24.730;2022-08-19T02:06:29;13.88;;;10.40;;
59273;SDS011;45044;41.572;24.730;2022-08-19T02:08:56;12.80;;;10.00;;
59273;SDS011;45044;41.572;24.730;2022-08-19T02:11:24;12.13;;;9.05;;
59273;SDS011;45044;41.572;24.730;2022-08-19T02:13:54;13.82;;;10.27;;
59273;SDS011;45044;41.572;24.730;2022-08-19T02:16:21;11.20;;;9.02;;
59273;SDS011;45044;41.572;24.730;2022-08-19T02:18:53;11.55;;;9.80;;
59273;SDS011;45044;41.572;24.730;2022-08-19T02:21:21;10.27;;;9.02;;
59273;SDS011;45044;41.572;24.730;2022-08-19T02:23:49;10.93;;;8.48;;
59273;SDS011;45044;41.572;24.730;2022-08-19T02:26:17;13.45;;;9.38;;
59273;SDS011;45044;41.572;24.730;2022-08-19T02:28:45;12.23;;;8.70;;
59273;SDS011;45044;41.572;24.730;2022-08-19T02:31:13;10.52;;;7.93;;
59273;SDS011;45044;41.572;24.730;2022-08-19T02:33:44;10.10;;;8.55;;
59273;SDS011;45044;41.572;24.730;2022-08-19T02:36:11;11.43;;;9.25;;
59273;SDS011;45044;41.572;24.730;2022-08-19T02:38:41;12.88;;;9.65;;
59273;SDS011;45044;41.572;24.730;2022-08-19T02:41:22;11.38;;;8.73;;
59273;SDS011;45044;41.572;24.730;2022-08-19T02:43:52;14.63;;;9.35;;
59273;SDS011;45044;41.572;24.730;2022-08-19T02:46:47;12.00;;;9.05;;
59273;SDS011;45044;41.572;24.730;2022-08-19T02:49:17;13.10;;;9.75;;
59273;SDS011;45044;41.572;24.730;2022-08-19T02:51:45;12.02;;;9.48;;
59273;SDS011;45044;41.572;24.730;2022-08-19T02:54:13;11.52;;;9.45;;
59273;SDS011;45044;41.572;24.730;2022-08-19T02:56:41;11.57;;;8.90;;
59273;SDS011;45044;41.572;24.730;2022-08-19T02:59:12;10.85;;;8.90;;
59273;SDS011;45044;41.572;24.730;2022-08-19T03:01:39;13.32;;;8.95;;
59273;SDS011;45044;41.572;24.730;2022-08-19T03:04:08;10.48;;;8.48;;
59273;SDS011;45044;41.572;24.730;2022-08-19T03:06:38;12.43;;;8.90;;
59273;SDS011;45044;41.572;24.730;2022-08-19T03:09:06;11.98;;;9.05;;
59273;SDS011;45044;41.572;24.730;2022-08-19T03:11:33;12.10;;;9.27;;
59273;SDS011;45044;41.572;24.730;2022-08-19T03:14:07;13.77;;;9.70;;
59273;SDS011;45044;41.572;24.730;2022-08-19T03:16:43;15.38;;;9.07;;
59273;SDS011;45044;41.572;24.730;2022-08-19T03:19:12;11.40;;;9.95;;
59273;SDS011;45044;41.572;24.730;2022-08-19T03:21:39;11.05;;;9.25;;
59273;SDS011;45044;41.572;24.730;2022-08-19T03:24:07;12.82;;;9.30;;
59273;SDS011;45044;41.572;24.730;2022-08-19T03:26:41;12.77;;;10.17;;
59273;SDS011;45044;41.572;24.730;2022-08-19T03:29:30;11.80;;;8.73;;
59273;SDS011;45044;41.572;24.730;2022-08-19T03:32:03;10.63;;;8.82;;
59273;SDS011;45044;41.572;24.730;2022-08-19T03:34:33;11.27;;;8.75;;
59273;SDS011;45044;41.572;24.730;2022-08-19T03:37:06;11.48;;;9.25;;
59273;SDS011;45044;41.572;24.730;2022-08-19T03:39:36;11.30;;;8.77;;
59273;SDS011;45044;41.572;24.730;2022-08-19T03:42:05;12.77;;;9.25;;
59273;SDS011;45044;41.572;24.730;2022-08-19T03:44:52;11.68;;;9.38;;
59273;SDS011;45044;41.572;24.730;2022-08-19T03:47:20;11.50;;;9.30;;
59273;SDS011;45044;41.572;24.730;2022-08-19T03:49:46;13.20;;;9.23;;
59273;SDS011;45044;41.572;24.730;2022-08-19T03:52:14;14.07;;;9.40;;
59273;SDS011;45044;41.572;24.730;2022-08-19T03:54:41;12.25;;;9.65;;
59273;SDS011;45044;41.572;24.730;2022-08-19T03:57:08;13.27;;;9.02;;
59273;SDS011;45044;41.572;24.730;2022-08-19T03:59:36;13.93;;;9.00;;
59273;SDS011;45044;41.572;24.730;2022-08-19T04:02:06;12.80;;;9.65;;
59273;SDS011;45044;41.572;24.730;2022-08-19T04:04:37;15.27;;;9.48;;
59273;SDS011;45044;41.572;24.730;2022-08-19T04:07:05;13.75;;;9.65;;
59273;SDS011;45044;41.572;24.730;2022-08-19T04:09:33;13.80;;;9.63;;
59273;SDS011;45044;41.572;24.730;2022-08-19T04:12:00;14.98;;;9.90;;
59273;SDS011;45044;41.572;24.730;2022-08-19T04:14:27;14.55;;;10.20;;
59273;SDS011;45044;41.572;24.730;2022-08-19T04:16:58;12.43;;;9.90;;
59273;SDS011;45044;41.572;24.730;2022-08-19T04:19:26;11.68;;;9.23;;
59273;SDS011;45044;41.572;24.730;2022-08-19T04:22:01;13.40;;;10.05;;
59273;SDS011;45044;41.572;24.730;2022-08-19T04:24:29;10.90;;;9.25;;
59273;SDS011;45044;41.572;24.730;2022-08-19T04:26:55;12.75;;;9.73;;
59273;SDS011;45044;41.572;24.730;2022-08-19T04:29:23;12.40;;;9.38;;
59273;SDS011;45044;41.572;24.730;2022-08-19T04:31:54;12.00;;;9.60;;
59273;SDS011;45044;41.572;24.730;2022-08-19T04:34:22;13.35;;;9.77;;
59273;SDS011;45044;41.572;24.730;2022-08-19T04:36:51;15.68;;;10.80;;
59273;SDS011;45044;41.572;24.730;2022-08-19T04:39:20;13.48;;;10.90;;
59273;SDS011;45044;41.572;24.730;2022-08-19T04:41:49;14.23;;;10.68;;
59273;SDS011;45044;41.572;24.730;2022-08-19T04:44:34;13.40;;;9.60;;
59273;SDS011;45044;41.572;24.730;2022-08-19T04:47:11;14.05;;;10.20;;
59273;SDS011;45044;41.572;24.730;2022-08-19T04:49:38;14.80;;;10.20;;
59273;SDS011;45044;41.572;24.730;2022-08-19T04:52:05;15.73;;;10.35;;
59273;SDS011;45044;41.572;24.730;2022-08-19T04:54:32;15.23;;;10.38;;
59273;SDS011;45044;41.572;24.730;2022-08-19T04:57:05;13.27;;;10.35;;
59273;SDS011;45044;41.572;24.730;2022-08-19T04:59:35;14.07;;;11.43;;
59273;SDS011;45044;41.572;24.730;2022-08-19T05:02:04;15.15;;;12.05;;
59273;SDS011;45044;41.572;24.730;2022-08-19T05:04:33;13.13;;;10.80;;
59273;SDS011;45044;41.572;24.730;2022-08-19T05:07:00;11.80;;;10.55;;
59273;SDS011;45044;41.572;24.730;2022-08-19T05:09:28;13.43;;;10.13;;
59273;SDS011;45044;41.572;24.730;2022-08-19T05:12:16;12.32;;;10.13;;
59273;SDS011;45044;41.572;24.730;2022-08-19T05:14:46;11.45;;;9.07;;
59273;SDS011;45044;41.572;24.730;2022-08-19T05:17:14;11.30;;;9.25;;
59273;SDS011;45044;41.572;24.730;2022-08-19T05:20:01;10.85;;;9.18;;
59273;SDS011;45044;41.572;24.730;2022-08-19T05:23:11;12.18;;;9.02;;
59273;SDS011;45044;41.572;24.730;2022-08-19T05:25:47;11.95;;;8.73;;
59273;SDS011;45044;41.572;24.730;2022-08-19T05:28:14;10.20;;;8.43;;
59273;SDS011;45044;41.572;24.730;2022-08-19T05:30:41;10.25;;;8.85;;
59273;SDS011;45044;41.572;24.730;2022-08-19T05:33:12;10.43;;;8.27;;
59273;SDS011;45044;41.572;24.730;2022-08-19T05:35:39;8.95;;;8.05;;
59273;SDS011;45044;41.572;24.730;2022-08-19T05:38:07;9.77;;;8.50;;
59273;SDS011;45044;41.572;24.730;2022-08-19T05:40:35;8.38;;;7.40;;
59273;SDS011;45044;41.572;24.730;2022-08-19T05:43:06;11.45;;;8.23;;
59273;SDS011;45044;41.572;24.730;2022-08-19T05:45:40;9.93;;;8.18;;
59273;SDS011;45044;41.572;24.730;2022-08-19T05:48:09;9.23;;;7.30;;
59273;SDS011;45044;41.572;24.730;2022-08-19T05:50:40;9.73;;;8.23;;
59273;SDS011;45044;41.572;24.730;2022-08-19T05:53:07;8.80;;;7.82;;
59273;SDS011;45044;41.572;24.730;2022-08-19T05:55:35;9.05;;;8.10;;
59273;SDS011;45044;41.572;24.730;2022-08-19T05:58:06;9.88;;;7.25;;
59273;SDS011;45044;41.572;24.730;2022-08-19T06:00:36;8.55;;;7.50;;
59273;SDS011;45044;41.572;24.730;2022-08-19T06:03:03;8.10;;;6.90;;
59273;SDS011;45044;41.572;24.730;2022-08-19T06:08:15;7.68;;;6.32;;
59273;SDS011;45044;41.572;24.730;2022-08-19T06:10:44;8.98;;;7.07;;
59273;SDS011;45044;41.572;24.730;2022-08-19T06:13:11;7.80;;;6.78;;
59273;SDS011;45044;41.572;24.730;2022-08-19T06:15:38;8.10;;;6.78;;
59273;SDS011;45044;41.572;24.730;2022-08-19T06:18:04;9.50;;;7.22;;
59273;SDS011;45044;41.572;24.730;2022-08-19T06:20:32;11.02;;;7.43;;
59273;SDS011;45044;41.572;24.730;2022-08-19T06:23:19;8.98;;;7.75;;
59273;SDS011;45044;41.572;24.730;2022-08-19T06:25:49;9.15;;;7.88;;
59273;SDS011;45044;41.572;24.730;2022-08-19T06:28:16;9.32;;;6.68;;
59273;SDS011;45044;41.572;24.730;2022-08-19T06:30:44;8.80;;;7.00;;
59273;SDS011;45044;41.572;24.730;2022-08-19T06:33:11;9.13;;;7.00;;
59273;SDS011;45044;41.572;24.730;2022-08-19T06:35:39;8.93;;;6.88;;
59273;SDS011;45044;41.572;24.730;2022-08-19T06:38:07;9.88;;;7.57;;
59273;SDS011;45044;41.572;24.730;2022-08-19T06:40:35;9.50;;;7.18;;
59273;SDS011;45044;41.572;24.730;2022-08-19T06:43:04;9.32;;;7.38;;
59273;SDS011;45044;41.572;24.730;2022-08-19T06:45:36;9.20;;;7.72;;
59273;SDS011;45044;41.572;24.730;2022-08-19T06:48:05;8.05;;;6.75;;
59273;SDS011;45044;41.572;24.730;2022-08-19T06:50:33;10.38;;;7.68;;
59273;SDS011;45044;41.572;24.730;2022-08-19T06:53:02;10.48;;;8.00;;
59273;SDS011;45044;41.572;24.730;2022-08-19T06:55:30;9.13;;;7.80;;
59273;SDS011;45044;41.572;24.730;2022-08-19T06:58:01;9.13;;;7.07;;
59273;SDS011;45044;41.572;24.730;2022-08-19T07:00:30;8.68;;;7.57;;
59273;SDS011;45044;41.572;24.730;2022-08-19T07:03:02;8.13;;;6.60;;
59273;SDS011;45044;41.572;24.730;2022-08-19T07:05:37;9.07;;;6.65;;
59273;SDS011;45044;41.572;24.730;2022-08-19T07:08:13;8.27;;;6.88;;
59273;SDS011;45044;41.572;24.730;2022-08-19T07:10:44;8.50;;;6.30;;
59273;SDS011;45044;41.572;24.730;2022-08-19T07:13:13;7.28;;;6.00;;
59273;SDS011;45044;41.572;24.730;2022-08-19T07:15:40;9.05;;;6.88;;
59273;SDS011;45044;41.572;24.730;2022-08-19T07:18:07;6.65;;;5.90;;
59273;SDS011;45044;41.572;24.730;2022-08-19T07:20:37;8.80;;;7.22;;
59273;SDS011;45044;41.572;24.730;2022-08-19T07:23:07;6.75;;;5.55;;
59273;SDS011;45044;41.572;24.730;2022-08-19T07:25:41;6.82;;;5.50;;
59273;SDS011;45044;41.572;24.730;2022-08-19T07:28:09;7.07;;;5.38;;
59273;SDS011;45044;41.572;24.730;2022-08-19T07:30:49;8.38;;;5.72;;
59273;SDS011;45044;41.572;24.730;2022-08-19T07:33:18;7.15;;;5.50;;
59273;SDS011;45044;41.572;24.730;2022-08-19T07:35:45;6.72;;;4.93;;
59273;SDS011;45044;41.572;24.730;2022-08-19T07:38:13;7.25;;;5.25;;
59273;SDS011;45044;41.572;24.730;2022-08-19T07:40:41;6.00;;;4.95;;
59273;SDS011;45044;41.572;24.730;2022-08-19T07:43:11;5.93;;;5.28;;
59273;SDS011;45044;41.572;24.730;2022-08-19T07:45:43;7.30;;;5.18;;
59273;SDS011;45044;41.572;24.730;2022-08-19T07:48:09;5.72;;;4.88;;
59273;SDS011;45044;41.572;24.730;2022-08-19T07:50:36;6.20;;;4.47;;
59273;SDS011;45044;41.572;24.730;2022-08-19T07:53:03;5.82;;;4.50;;
59273;SDS011;45044;41.572;24.730;2022-08-19T07:55:30;5.85;;;4.22;;
59273;SDS011;45044;41.572;24.730;2022-08-19T07:58:08;7.32;;;4.70;;
59273;SDS011;45044;41.572;24.730;2022-08-19T08:00:37;4.65;;;3.80;;
59273;SDS011;45044;41.572;24.730;2022-08-19T08:03:05;6.35;;;4.50;;
59273;SDS011;45044;41.572;24.730;2022-08-19T08:05:32;6.05;;;4.47;;
59273;SDS011;45044;41.572;24.730;2022-08-19T08:08:17;4.82;;;3.90;;
59273;SDS011;45044;41.572;24.730;2022-08-19T08:11:09;6.47;;;4.75;;
59273;SDS011;45044;41.572;24.730;2022-08-19T08:13:40;4.63;;;3.60;;
59273;SDS011;45044;41.572;24.730;2022-08-19T08:16:08;4.72;;;3.95;;
59273;SDS011;45044;41.572;24.730;2022-08-19T08:18:39;5.75;;;3.92;;
59273;SDS011;45044;41.572;24.730;2022-08-19T08:21:16;5.93;;;4.47;;
59273;SDS011;45044;41.572;24.730;2022-08-19T08:23:43;5.10;;;4.13;;
59273;SDS011;45044;41.572;24.730;2022-08-19T08:26:10;5.03;;;4.20;;
59273;SDS011;45044;41.572;24.730;2022-08-19T08:28:41;5.82;;;4.32;;
59273;SDS011;45044;41.572;24.730;2022-08-19T08:31:14;5.80;;;4.53;;
59273;SDS011;45044;41.572;24.730;2022-08-19T08:33:45;6.25;;;4.50;;
59273;SDS011;45044;41.572;24.730;2022-08-19T08:36:12;6.57;;;4.72;;
59273;SDS011;45044;41.572;24.730;2022-08-19T08:38:41;6.32;;;4.57;;
59273;SDS011;45044;41.572;24.730;2022-08-19T08:41:23;6.05;;;4.43;;
59273;SDS011;45044;41.572;24.730;2022-08-19T08:43:54;5.85;;;4.60;;
59273;SDS011;45044;41.572;24.730;2022-08-19T08:46:34;6.97;;;4.75;;
59273;SDS011;45044;41.572;24.730;2022-08-19T08:52:13;5.22;;;4.45;;
59273;SDS011;45044;41.572;24.730;2022-08-19T08:54:59;6.30;;;4.38;;
59273;SDS011;45044;41.572;24.730;2022-08-19T08:58:20;6.25;;;4.63;;
59273;SDS011;45044;41.572;24.730;2022-08-19T09:00:50;6.57;;;4.35;;
59273;SDS011;45044;41.572;24.730;2022-08-19T09:03:21;5.40;;;4.63;;
59273;SDS011;45044;41.572;24.730;2022-08-19T09:17:34;6.18;;;4.50;;
59273;SDS011;45044;41.572;24.730;2022-08-19T09:20:21;4.53;;;4.05;;
59273;SDS011;45044;41.572;24.730;2022-08-19T09:22:51;5.07;;;4.53;;
59273;SDS011;45044;41.572;24.730;2022-08-19T09:25:21;6.40;;;4.45;;
59273;SDS011;45044;41.572;24.730;2022-08-19T09:27:54;5.82;;;5.00;;
59273;SDS011;45044;41.572;24.730;2022-08-19T09:30:32;6.45;;;5.25;;
59273;SDS011;45044;41.572;24.730;2022-08-19T09:33:05;5.13;;;3.90;;
59273;SDS011;45044;41.572;24.730;2022-08-19T09:35:32;5.18;;;4.38;;
59273;SDS011;45044;41.572;24.730;2022-08-19T09:38:18;6.00;;;4.25;;
59273;SDS011;45044;41.572;24.730;2022-08-19T09:40:46;6.93;;;4.68;;
59273;SDS011;45044;41.572;24.730;2022-08-19T09:43:12;6.25;;;4.43;;
59273;SDS011;45044;41.572;24.730;2022-08-19T09:45:39;7.07;;;4.80;;
59273;SDS011;45044;41.572;24.730;2022-08-19T09:48:06;6.10;;;5.38;;
59273;SDS011;45044;41.572;24.730;2022-08-19T09:50:37;8.02;;;5.55;;
59273;SDS011;45044;41.572;24.730;2022-08-19T09:53:17;7.82;;;4.90;;
59273;SDS011;45044;41.572;24.730;2022-08-19T09:55:44;6.22;;;5.30;;
59273;SDS011;45044;41.572;24.730;2022-08-19T09:58:11;7.15;;;5.00;;
59273;SDS011;45044;41.572;24.730;2022-08-19T10:00:38;10.93;;;5.90;;
59273;SDS011;45044;41.572;24.730;2022-08-19T10:03:05;5.97;;;5.00;;
59273;SDS011;45044;41.572;24.730;2022-08-19T10:05:32;6.32;;;5.18;;
59273;SDS011;45044;41.572;24.730;2022-08-19T10:08:21;7.18;;;5.40;;
59273;SDS011;45044;41.572;24.730;2022-08-19T10:10:52;6.38;;;5.20;;
59273;SDS011;45044;41.572;24.730;2022-08-19T10:13:25;6.40;;;5.30;;
59273;SDS011;45044;41.572;24.730;2022-08-19T10:15:54;6.70;;;5.82;;
59273;SDS011;45044;41.572;24.730;2022-08-19T10:18:23;6.60;;;5.43;;
59273;SDS011;45044;41.572;24.730;2022-08-19T10:20:51;6.10;;;4.85;;
59273;SDS011;45044;41.572;24.730;2022-08-19T10:23:28;7.13;;;4.95;;
59273;SDS011;45044;41.572;24.730;2022-08-19T10:26:00;7.65;;;5.30;;
59273;SDS011;45044;41.572;24.730;2022-08-19T10:28:35;5.75;;;4.70;;
59273;SDS011;45044;41.572;24.730;2022-08-19T10:31:09;7.00;;;5.05;;
59273;SDS011;45044;41.572;24.730;2022-08-19T10:33:44;7.20;;;5.40;;
59273;SDS011;45044;41.572;24.730;2022-08-19T10:36:20;6.18;;;5.00;;
59273;SDS011;45044;41.572;24.730;2022-08-19T10:38:49;6.78;;;5.38;;
59273;SDS011;45044;41.572;24.730;2022-08-19T10:41:23;6.43;;;5.18;;
59273;SDS011;45044;41.572;24.730;2022-08-19T10:43:57;8.43;;;5.40;;
59273;SDS011;45044;41.572;24.730;2022-08-19T10:46:29;6.10;;;5.47;;
59273;SDS011;45044;41.572;24.730;2022-08-19T10:49:02;7.72;;;4.93;;
59273;SDS011;45044;41.572;24.730;2022-08-19T10:51:31;7.45;;;5.30;;
59273;SDS011;45044;41.572;24.730;2022-08-19T10:54:18;7.18;;;4.93;;
59273;SDS011;45044;41.572;24.730;2022-08-19T10:56:58;6.38;;;5.13;;
59273;SDS011;45044;41.572;24.730;2022-08-19T10:59:26;6.88;;;5.35;;
59273;SDS011;45044;41.572;24.730;2022-08-19T11:02:02;7.85;;;5.32;;
59273;SDS011;45044;41.572;24.730;2022-08-19T11:04:32;6.05;;;5.40;;
59273;SDS011;45044;41.572;24.730;2022-08-19T11:07:01;6.97;;;5.50;;
59273;SDS011;45044;41.572;24.730;2022-08-19T11:09:28;6.82;;;5.50;;
59273;SDS011;45044;41.572;24.730;2022-08-19T11:11:59;8.05;;;6.13;;
59273;SDS011;45044;41.572;24.730;2022-08-19T11:14:29;8.95;;;6.38;;
59273;SDS011;45044;41.572;24.730;2022-08-19T11:16:59;7.07;;;6.13;;
59273;SDS011;45044;41.572;24.730;2022-08-19T11:19:27;7.47;;;5.85;;
59273;SDS011;45044;41.572;24.730;2022-08-19T11:21:54;7.10;;;5.75;;
59273;SDS011;45044;41.572;24.730;2022-08-19T11:24:25;8.95;;;6.38;;
59273;SDS011;45044;41.572;24.730;2022-08-19T11:26:54;8.70;;;7.80;;
59273;SDS011;45044;41.572;24.730;2022-08-19T11:29:28;8.07;;;6.50;;
59273;SDS011;45044;41.572;24.730;2022-08-19T11:31:57;7.72;;;6.32;;
59273;SDS011;45044;41.572;24.730;2022-08-19T11:34:25;7.57;;;6.10;;
59273;SDS011;45044;41.572;24.730;2022-08-19T11:36:56;7.93;;;6.45;;
59273;SDS011;45044;41.572;24.730;2022-08-19T11:39:28;8.35;;;6.45;;
59273;SDS011;45044;41.572;24.730;2022-08-19T11:41:59;7.65;;;5.68;;
59273;SDS011;45044;41.572;24.730;2022-08-19T11:44:28;8.02;;;5.93;;
59273;SDS011;45044;41.572;24.730;2022-08-19T11:46:56;8.38;;;5.60;;
59273;SDS011;45044;41.572;24.730;2022-08-19T11:49:34;7.57;;;6.18;;
59273;SDS011;45044;41.572;24.730;2022-08-19T11:52:02;9.40;;;5.90;;
59273;SDS011;45044;41.572;24.730;2022-08-19T11:54:29;6.45;;;5.63;;
59273;SDS011;45044;41.572;24.730;2022-08-19T11:56:59;7.85;;;6.28;;
59273;SDS011;45044;41.572;24.730;2022-08-19T11:59:28;7.20;;;6.25;;
59273;SDS011;45044;41.572;24.730;2022-08-19T12:01:57;7.85;;;6.22;;
59273;SDS011;45044;41.572;24.730;2022-08-19T12:04:24;8.43;;;7.43;;
59273;SDS011;45044;41.572;24.730;2022-08-19T12:06:51;7.70;;;6.90;;
59273;SDS011;45044;41.572;24.730;2022-08-19T12:09:41;8.07;;;7.18;;
59273;SDS011;45044;41.572;24.730;2022-08-19T12:12:11;7.50;;;6.32;;
59273;SDS011;45044;41.572;24.730;2022-08-19T12:14:38;6.32;;;5.60;;
59273;SDS011;45044;41.572;24.730;2022-08-19T12:17:05;8.70;;;6.05;;
59273;SDS011;45044;41.572;24.730;2022-08-19T12:19:35;9.18;;;6.43;;
59273;SDS011;45044;41.572;24.730;2022-08-19T12:22:03;7.18;;;5.85;;
59273;SDS011;45044;41.572;24.730;2022-08-19T12:24:31;8.60;;;6.53;;
59273;SDS011;45044;41.572;24.730;2022-08-19T12:26:59;7.90;;;6.40;;
59273;SDS011;45044;41.572;24.730;2022-08-19T12:29:28;7.07;;;5.90;;
59273;SDS011;45044;41.572;24.730;2022-08-19T12:31:56;7.32;;;6.15;;
59273;SDS011;45044;41.572;24.730;2022-08-19T12:34:29;8.32;;;5.78;;
59273;SDS011;45044;41.572;24.730;2022-08-19T12:36:59;7.15;;;6.30;;
59273;SDS011;45044;41.572;24.730;2022-08-19T12:39:33;7.05;;;5.90;;
59273;SDS011;45044;41.572;24.730;2022-08-19T12:42:01;7.43;;;5.80;;
59273;SDS011;45044;41.572;24.730;2022-08-19T12:44:28;7.88;;;5.88;;
59273;SDS011;45044;41.572;24.730;2022-08-19T12:47:02;8.02;;;5.72;;
59273;SDS011;45044;41.572;24.730;2022-08-19T12:49:32;6.70;;;5.97;;
59273;SDS011;45044;41.572;24.730;2022-08-19T12:52:20;8.68;;;6.35;;
59273;SDS011;45044;41.572;24.730;2022-08-19T12:54:49;6.95;;;5.45;;
59273;SDS011;45044;41.572;24.730;2022-08-19T12:57:20;7.57;;;6.18;;
59273;SDS011;45044;41.572;24.730;2022-08-19T13:00:03;7.07;;;6.03;;
59273;SDS011;45044;41.572;24.730;2022-08-19T13:02:37;6.65;;;5.68;;
59273;SDS011;45044;41.572;24.730;2022-08-19T13:05:05;7.30;;;5.75;;
59273;SDS011;45044;41.572;24.730;2022-08-19T13:07:34;6.80;;;5.60;;
59273;SDS011;45044;41.572;24.730;2022-08-19T13:10:08;7.50;;;6.15;;
59273;SDS011;45044;41.572;24.730;2022-08-19T13:12:38;7.22;;;5.30;;
59273;SDS011;45044;41.572;24.730;2022-08-19T13:15:05;7.22;;;5.70;;
59273;SDS011;45044;41.572;24.730;2022-08-19T13:17:36;9.90;;;6.68;;
59273;SDS011;45044;41.572;24.730;2022-08-19T13:20:04;7.20;;;5.85;;
59273;SDS011;45044;41.572;24.730;2022-08-19T13:22:40;7.28;;;5.72;;
59273;SDS011;45044;41.572;24.730;2022-08-19T13:25:07;6.80;;;5.60;;
59273;SDS011;45044;41.572;24.730;2022-08-19T13:27:35;7.60;;;6.00;;
59273;SDS011;45044;41.572;24.730;2022-08-19T13:30:02;7.32;;;5.60;;
59273;SDS011;45044;41.572;24.730;2022-08-19T13:32:48;7.55;;;5.40;;
59273;SDS011;45044;41.572;24.730;2022-08-19T13:35:34;7.15;;;6.10;;
59273;SDS011;45044;41.572;24.730;2022-08-19T13:38:03;7.60;;;5.43;;
59273;SDS011;45044;41.572;24.730;2022-08-19T13:40:37;7.25;;;5.82;;
59273;SDS011;45044;41.572;24.730;2022-08-19T13:43:06;7.40;;;5.95;;
59273;SDS011;45044;41.572;24.730;2022-08-19T13:45:47;7.50;;;5.45;;
59273;SDS011;45044;41.572;24.730;2022-08-19T13:48:14;8.02;;;5.75;;
59273;SDS011;45044;41.572;24.730;2022-08-19T13:50:42;8.32;;;6.25;;
59273;SDS011;45044;41.572;24.730;2022-08-19T13:53:10;7.15;;;5.70;;
59273;SDS011;45044;41.572;24.730;2022-08-19T13:55:39;8.50;;;6.10;;
59273;SDS011;45044;41.572;24.730;2022-08-19T13:58:09;6.38;;;5.25;;
59273;SDS011;45044;41.572;24.730;2022-08-19T14:00:38;7.05;;;5.90;;
59273;SDS011;45044;41.572;24.730;2022-08-19T14:03:13;8.05;;;5.60;;
59273;SDS011;45044;41.572;24.730;2022-08-19T14:05:41;8.73;;;6.10;;
59273;SDS011;45044;41.572;24.730;2022-08-19T14:08:08;8.95;;;5.63;;
59273;SDS011;45044;41.572;24.730;2022-08-19T14:10:37;9.43;;;5.80;;
59273;SDS011;45044;41.572;24.730;2022-08-19T14:13:05;7.88;;;5.72;;
59273;SDS011;45044;41.572;24.730;2022-08-19T14:15:31;6.82;;;5.80;;
59273;SDS011;45044;41.572;24.730;2022-08-19T14:17:58;7.55;;;6.07;;
59273;SDS011;45044;41.572;24.730;2022-08-19T14:20:26;9.43;;;5.75;;
59273;SDS011;45044;41.572;24.730;2022-08-19T14:22:53;7.32;;;5.72;;
59273;SDS011;45044;41.572;24.730;2022-08-19T14:25:23;8.73;;;6.65;;
59273;SDS011;45044;41.572;24.730;2022-08-19T14:27:55;7.05;;;6.13;;
59273;SDS011;45044;41.572;24.730;2022-08-19T14:30:25;7.72;;;6.38;;
59273;SDS011;45044;41.572;24.730;2022-08-19T14:32:58;7.05;;;5.60;;
59273;SDS011;45044;41.572;24.730;2022-08-19T14:35:27;7.43;;;5.80;;
59273;SDS011;45044;41.572;24.730;2022-08-19T14:38:04;8.35;;;6.10;;
59273;SDS011;45044;41.572;24.730;2022-08-19T14:40:33;6.97;;;5.93;;
59273;SDS011;45044;41.572;24.730;2022-08-19T14:43:01;6.88;;;5.57;;
59273;SDS011;45044;41.572;24.730;2022-08-19T14:45:31;8.35;;;5.50;;
59273;SDS011;45044;41.572;24.730;2022-08-19T14:48:02;8.88;;;5.47;;
59273;SDS011;45044;41.572;24.730;2022-08-19T14:50:29;7.95;;;6.00;;
59273;SDS011;45044;41.572;24.730;2022-08-19T14:53:00;6.95;;;5.80;;
59273;SDS011;45044;41.572;24.730;2022-08-19T14:55:40;8.80;;;5.75;;
59273;SDS011;45044;41.572;24.730;2022-08-19T14:58:08;7.45;;;6.22;;
59273;SDS011;45044;41.572;24.730;2022-08-19T15:00:55;8.13;;;5.70;;
59273;SDS011;45044;41.572;24.730;2022-08-19T15:03:22;9.32;;;5.32;;
59273;SDS011;45044;41.572;24.730;2022-08-19T15:05:48;8.27;;;5.70;;
59273;SDS011;45044;41.572;24.730;2022-08-19T15:08:17;7.35;;;5.53;;